Time;durP1;ratioP1;P1;durP2;ratioP2;P2;SDS_P1;SDS_P2;PMS_P1;PMS_P2;Temp;Humidity;BMP_temperature;BMP_pressure;BME280_temperature;BME280_humidity;BME280_pressure;Samples;Min_cycle;Max_cycle;Signal;HPM_P1;HPM_P2
2024/03/27 00:01:19;;;;;;;8.82;4.90;;;4.20;75.50;;;;;;5065491;28;20363;-84
2024/03/27 00:03:44;;;;;;;9.88;4.85;;;4.30;75.50;;;;;;5066006;28;20537;-84
2024/03/27 00:06:10;;;;;;;6.95;4.35;;;4.30;75.50;;;;;;5067651;28;20478;-84
2024/03/27 00:08:36;;;;;;;10.63;4.45;;;4.40;75.60;;;;;;5042271;28;20036;-84
2024/03/27 00:11:02;;;;;;;8.07;3.85;;;4.40;75.60;;;;;;5061803;28;20446;-83
2024/03/27 00:13:27;;;;;;;8.45;4.22;;;4.30;75.70;;;;;;5071601;28;20028;-84
2024/03/27 00:15:54;;;;;;;10.40;4.55;;;4.30;75.80;;;;;;5068867;28;20478;-83
2024/03/27 00:18:21;;;;;;;10.63;4.73;;;4.30;76.00;;;;;;5070587;28;20028;-83
2024/03/27 00:20:47;;;;;;;9.50;4.10;;;4.20;76.70;;;;;;5066781;28;20312;-83
2024/03/27 00:23:16;;;;;;;11.18;5.05;;;4.10;76.20;;;;;;5068379;28;20048;-84
2024/03/27 00:25:42;;;;;;;10.52;4.07;;;4.10;76.30;;;;;;5044128;28;20670;-84
2024/03/27 00:28:09;;;;;;;9.13;4.28;;;4.10;76.40;;;;;;5054748;28;20024;-85
2024/03/27 00:30:35;;;;;;;;;;;4.10;76.40;;;;;;5052426;28;20029;-83
2024/03/27 00:33:02;;;;;;;9.30;4.97;;;4.10;76.20;;;;;;5056884;28;20357;-84
2024/03/27 00:35:28;;;;;;;9.10;5.07;;;4.10;76.60;;;;;;5062072;28;20035;-83
2024/03/27 00:37:54;;;;;;;7.40;4.32;;;4.10;76.80;;;;;;5058578;28;20025;-83
2024/03/27 00:40:20;;;;;;;9.70;5.28;;;4.00;76.70;;;;;;5072170;28;20019;-83
2024/03/27 00:42:46;;;;;;;10.60;5.13;;;4.10;76.80;;;;;;5056026;28;20028;-84
2024/03/27 00:45:15;;;;;;;7.47;4.20;;;4.00;76.90;;;;;;5056917;28;20059;-83
2024/03/27 00:47:41;;;;;;;15.15;6.10;;;4.00;76.90;;;;;;5057290;28;20488;-84
2024/03/27 00:50:08;;;;;;;9.65;4.75;;;4.00;77.10;;;;;;5064875;28;20028;-83
2024/03/27 00:52:34;;;;;;;8.15;5.18;;;4.10;77.30;;;;;;5061965;28;20363;-83
2024/03/27 00:55:00;;;;;;;11.75;5.10;;;4.10;77.40;;;;;;5065844;28;20029;-84
2024/03/27 00:57:26;;;;;;;14.00;5.30;;;4.10;77.40;;;;;;5028822;28;20358;-84
2024/03/27 00:59:52;;;;;;;10.98;4.95;;;4.10;77.50;;;;;;5059073;28;20037;-86
2024/03/27 01:02:18;;;;;;;11.55;4.43;;;4.10;77.50;;;;;;5033902;28;20588;-85
2024/03/27 01:04:48;;;;;;;9.75;5.57;;;4.10;77.60;;;;;;5048143;28;20032;-85
2024/03/27 01:07:15;;;;;;;15.82;5.00;;;4.00;77.60;;;;;;5075899;28;20028;-84
2024/03/27 01:09:41;;;;;;;10.13;4.53;;;4.00;77.80;;;;;;5048614;28;20036;-85
2024/03/27 01:12:07;;;;;;;11.13;5.13;;;3.90;77.90;;;;;;5068380;28;20055;-84
2024/03/27 01:14:33;;;;;;;11.27;5.05;;;3.90;78.20;;;;;;5062193;28;20028;-83
2024/03/27 01:16:59;;;;;;;13.63;4.88;;;3.90;78.20;;;;;;5051523;28;20112;-82
2024/03/27 01:19:24;;;;;;;9.07;5.47;;;3.90;78.30;;;;;;5044001;28;20026;-85
2024/03/27 01:21:50;;;;;;;9.02;3.88;;;3.90;78.40;;;;;;5034365;28;20045;-82
2024/03/27 01:24:16;;;;;;;10.15;4.00;;;3.90;78.30;;;;;;5055593;28;20024;-84
2024/03/27 01:26:42;;;;;;;11.10;5.05;;;3.90;78.30;;;;;;5058728;28;20024;-85
2024/03/27 01:29:08;;;;;;;9.43;5.47;;;3.90;78.40;;;;;;5057169;28;20061;-85
2024/03/27 01:31:34;;;;;;;11.63;5.15;;;3.80;78.60;;;;;;5035315;28;20025;-84
2024/03/27 01:33:59;;;;;;;7.68;4.82;;;3.80;78.60;;;;;;5066280;28;20070;-82
2024/03/27 01:36:25;;;;;;;11.32;5.03;;;3.80;78.60;;;;;;5046670;28;20055;-84
2024/03/27 01:38:51;;;;;;;9.68;5.05;;;3.80;78.50;;;;;;5052944;28;20028;-83
2024/03/27 01:41:17;;;;;;;9.93;4.80;;;3.80;78.30;;;;;;5065189;28;20382;-84
2024/03/27 01:43:50;;;;;;;8.52;4.47;;;3.80;78.50;;;;;;5070054;28;20039;-85
2024/03/27 01:46:18;;;;;;;8.18;4.60;;;3.80;78.60;;;;;;5073565;28;20021;-84
2024/03/27 01:48:44;;;;;;;7.78;5.28;;;3.70;78.80;;;;;;5028846;28;20033;-84
2024/03/27 01:51:10;;;;;;;9.90;4.38;;;3.70;79.10;;;;;;5070643;28;20052;-84
2024/03/27 01:53:37;;;;;;;11.70;5.38;;;3.60;79.30;;;;;;5063213;28;20032;-84
2024/03/27 01:56:03;;;;;;;9.93;4.55;;;3.60;79.60;;;;;;5064778;28;20381;-85
2024/03/27 01:58:30;;;;;;;12.32;4.93;;;3.60;79.70;;;;;;5067925;28;20033;-84
2024/03/27 02:00:56;;;;;;;9.80;4.80;;;3.60;79.90;;;;;;5069546;28;20020;-83
2024/03/27 02:03:22;;;;;;;12.60;6.30;;;3.60;79.80;;;;;;5043194;28;20047;-84
2024/03/27 02:05:49;;;;;;;15.73;4.90;;;3.60;79.70;;;;;;5059177;28;20032;-85
2024/03/27 02:08:15;;;;;;;15.65;5.13;;;3.60;79.80;;;;;;5062685;28;20036;-84
2024/03/27 02:10:41;;;;;;;12.82;5.47;;;3.60;79.70;;;;;;5049129;28;20549;-82
2024/03/27 02:13:06;;;;;;;13.43;4.68;;;3.60;79.80;;;;;;5040995;28;20025;-84
2024/03/27 02:15:32;;;;;;;7.65;4.55;;;3.50;79.90;;;;;;5059544;28;20055;-84
2024/03/27 02:17:58;;;;;;;9.40;4.80;;;3.50;80.00;;;;;;5060360;28;20010;-85
2024/03/27 02:20:24;;;;;;;11.10;4.70;;;3.50;80.00;;;;;;5051972;28;20445;-85
2024/03/27 02:22:55;;;;;;;9.50;4.75;;;3.40;80.00;;;;;;5048599;28;20273;-84
2024/03/27 02:25:39;;;;;;;9.02;4.95;;;3.40;80.10;;;;;;5051527;28;20108;-84
2024/03/27 02:28:05;;;;;;;8.40;4.57;;;3.40;80.50;;;;;;5037840;28;20029;-84
2024/03/27 02:30:31;;;;;;;15.35;5.22;;;3.40;80.40;;;;;;5039113;28;20111;-84
2024/03/27 02:32:57;;;;;;;10.23;4.95;;;3.40;80.70;;;;;;5059441;28;20056;-84
2024/03/27 02:35:23;;;;;;;8.48;5.18;;;3.30;80.80;;;;;;5056822;28;20474;-83
2024/03/27 02:37:48;;;;;;;11.77;6.40;;;3.30;80.90;;;;;;5055757;28;20037;-85
2024/03/27 02:40:14;;;;;;;11.15;5.97;;;3.20;81.20;;;;;;5056164;28;20047;-84
2024/03/27 02:42:40;;;;;;;14.60;5.55;;;3.20;81.50;;;;;;5055292;28;20115;-83
2024/03/27 02:45:08;;;;;;;7.53;5.32;;;3.20;81.50;;;;;;5057337;28;20025;-84
2024/03/27 02:47:35;;;;;;;8.73;5.03;;;3.20;81.40;;;;;;5056435;28;20506;-83
2024/03/27 02:50:01;;;;;;;11.13;6.47;;;3.30;81.40;;;;;;5044393;28;20453;-85
2024/03/27 02:52:26;;;;;;;10.50;5.65;;;3.20;81.40;;;;;;5056056;28;20021;-84
2024/03/27 02:54:52;;;;;;;8.68;5.75;;;3.20;81.50;;;;;;5056460;28;20029;-84
2024/03/27 02:57:18;;;;;;;7.38;4.75;;;3.20;81.60;;;;;;5056982;28;20466;-85
2024/03/27 02:59:46;;;;;;;7.38;4.75;;;3.20;81.50;;;;;;5054171;28;20025;-85
2024/03/27 03:02:12;;;;;;;17.52;6.38;;;3.20;81.30;;;;;;5057662;28;20020;-85
2024/03/27 03:04:37;;;;;;;10.52;5.57;;;3.20;81.40;;;;;;5055473;28;20531;-85
2024/03/27 03:07:03;;;;;;;8.85;4.53;;;3.20;81.40;;;;;;5053765;28;20191;-84
2024/03/27 03:09:29;;;;;;;13.82;5.50;;;3.20;81.40;;;;;;5053817;28;20036;-84
2024/03/27 03:11:54;;;;;;;12.48;5.40;;;3.20;81.50;;;;;;5048956;28;20587;-84
2024/03/27 03:14:20;;;;;;;10.77;5.32;;;3.10;81.40;;;;;;5057280;28;20017;-85
2024/03/27 03:16:46;;;;;;;10.27;4.53;;;3.10;81.50;;;;;;5042935;28;20025;-85
2024/03/27 03:19:11;;;;;;;9.63;5.20;;;3.10;81.60;;;;;;5065920;28;20492;-83
2024/03/27 03:21:38;;;;;;;11.77;5.70;;;3.10;81.60;;;;;;5054433;28;20052;-82
2024/03/27 03:24:04;;;;;;;9.38;5.78;;;3.20;81.70;;;;;;5046950;28;20083;-82
2024/03/27 03:26:30;;;;;;;12.77;6.45;;;3.10;81.70;;;;;;5048572;28;20078;-84
2024/03/27 03:28:55;;;;;;;9.95;5.30;;;3.20;81.70;;;;;;5051552;28;20104;-84
2024/03/27 03:31:21;;;;;;;15.48;6.68;;;3.20;81.70;;;;;;5053786;28;20028;-84
2024/03/27 03:33:47;;;;;;;10.85;5.45;;;3.20;81.70;;;;;;5054682;28;20433;-84
2024/03/27 03:36:13;;;;;;;10.07;5.85;;;3.10;81.90;;;;;;5055592;28;20079;-84
2024/03/27 03:38:38;;;;;;;20.60;7.18;;;3.10;82.30;;;;;;5037742;28;20494;-84
2024/03/27 03:41:06;;;;;;;9.38;5.60;;;3.10;82.60;;;;;;5055472;28;20072;-84
2024/03/27 03:43:32;;;;;;;8.75;5.43;;;3.10;82.50;;;;;;5055713;28;20031;-84
2024/03/27 03:45:58;;;;;;;9.55;6.25;;;3.20;82.30;;;;;;5054247;28;20025;-84
2024/03/27 03:48:24;;;;;;;17.30;6.20;;;3.30;82.30;;;;;;5054152;28;20104;-84
2024/03/27 03:50:49;;;;;;;11.25;6.13;;;3.40;81.80;;;;;;5045557;28;20076;-84
2024/03/27 03:53:15;;;;;;;11.00;5.95;;;3.40;81.60;;;;;;5060650;28;20033;-82
2024/03/27 03:55:41;;;;;;;13.02;6.82;;;3.40;81.60;;;;;;5072144;28;20055;-82
2024/03/27 03:58:07;;;;;;;14.63;6.38;;;3.50;81.60;;;;;;5040966;28;20545;-83
2024/03/27 04:00:33;;;;;;;10.80;6.40;;;3.50;81.60;;;;;;5067839;28;20032;-83
2024/03/27 04:02:58;;;;;;;9.68;5.22;;;3.60;81.30;;;;;;5073061;28;20066;-84
2024/03/27 04:05:24;;;;;;;15.60;6.40;;;3.60;81.10;;;;;;5063239;28;20017;-82
2024/03/27 04:07:50;;;;;;;9.07;5.35;;;3.60;81.00;;;;;;5060122;28;20034;-83
2024/03/27 04:10:16;;;;;;;11.57;5.45;;;3.70;81.10;;;;;;5058013;28;20367;-83
2024/03/27 04:12:43;;;;;;;12.90;5.88;;;3.70;81.30;;;;;;5069119;28;20091;-82
2024/03/27 04:15:09;;;;;;;11.10;6.53;;;3.80;81.40;;;;;;5069576;28;20032;-83
2024/03/27 04:17:35;;;;;;;10.95;6.07;;;3.90;81.20;;;;;;5054226;28;20095;-84
2024/03/27 04:20:10;;;;;;;10.77;6.03;;;4.20;81.10;;;;;;5042401;28;20128;-84
2024/03/27 04:22:39;;;;;;;11.27;6.20;;;4.40;80.00;;;;;;5064433;28;20032;-84
2024/03/27 04:25:05;;;;;;;12.55;6.03;;;4.70;79.00;;;;;;5044372;28;20032;-84
2024/03/27 04:27:31;;;;;;;15.05;5.90;;;4.90;77.60;;;;;;5035692;28;20390;-84
2024/03/27 04:29:58;;;;;;;13.02;6.63;;;5.10;77.00;;;;;;5058522;28;20017;-85
2024/03/27 04:32:25;;;;;;;13.55;6.40;;;5.30;76.30;;;;;;5059759;28;20017;-83
2024/03/27 04:34:50;;;;;;;14.43;6.43;;;5.60;75.70;;;;;;5067333;28;20025;-83
2024/03/27 04:37:17;;;;;;;8.45;6.07;;;5.50;74.30;;;;;;5071762;28;20256;-83
2024/03/27 04:39:42;;;;;;;10.23;5.85;;;5.30;74.50;;;;;;5051497;28;20051;-85
2024/03/27 04:42:10;;;;;;;14.07;7.13;;;5.00;75.00;;;;;;5072325;28;20078;-84
2024/03/27 04:44:36;;;;;;;15.05;7.07;;;4.70;75.50;;;;;;5066240;28;20036;-85
2024/03/27 04:47:02;;;;;;;16.92;6.55;;;4.50;76.30;;;;;;5057194;28;20020;-88
2024/03/27 04:49:28;;;;;;;13.85;6.70;;;4.40;77.10;;;;;;5053294;28;20024;-88
2024/03/27 04:51:54;;;;;;;12.88;5.95;;;4.40;77.20;;;;;;5057053;28;20096;-88
2024/03/27 04:54:19;;;;;;;10.02;5.65;;;4.40;77.60;;;;;;5054805;28;20502;-88
2024/03/27 04:56:45;;;;;;;9.80;5.47;;;4.90;77.10;;;;;;5054894;28;20070;-89
2024/03/27 04:59:11;;;;;;;18.75;6.45;;;5.40;75.80;;;;;;5043217;28;20036;-89
2024/03/27 05:01:37;;;;;;;13.10;6.38;;;5.90;74.30;;;;;;5055153;28;20036;-89
2024/03/27 05:04:03;;;;;;;9.70;5.97;;;5.70;73.30;;;;;;5054357;28;20036;-90
2024/03/27 05:06:28;;;;;;;13.38;6.45;;;5.30;74.10;;;;;;5074289;28;20062;-87
2024/03/27 05:08:57;;;;;;;16.13;7.00;;;5.00;75.00;;;;;;5071615;28;20025;-88
2024/03/27 05:11:24;;;;;;;16.27;6.03;;;4.80;75.70;;;;;;5052847;28;20025;-90
2024/03/27 05:13:50;;;;;;;11.50;6.15;;;4.70;75.90;;;;;;5056317;28;20406;-89
2024/03/27 05:16:16;;;;;;;14.48;6.30;;;4.70;76.10;;;;;;5075112;28;20524;-89
2024/03/27 05:18:42;;;;;;;12.57;6.22;;;4.70;76.40;;;;;;5046470;28;20036;-89
2024/03/27 05:21:08;;;;;;;22.40;6.80;;;4.60;76.40;;;;;;5076710;28;20044;-85
2024/03/27 05:23:36;;;;;;;13.13;5.25;;;4.70;76.50;;;;;;5059082;28;20401;-88
2024/03/27 05:26:05;;;;;;;;;;;4.70;76.30;;;;;;5078206;28;20029;-87
2024/03/27 05:28:30;;;;;;;19.48;6.38;;;4.80;76.10;;;;;;5059677;28;20523;-87
2024/03/27 05:30:56;;;;;;;11.48;5.18;;;4.80;75.70;;;;;;5049291;28;20060;-88
2024/03/27 05:33:22;;;;;;;10.60;4.93;;;4.90;75.40;;;;;;5065360;28;20116;-87
2024/03/27 05:35:51;;;;;;;12.02;5.30;;;4.90;74.90;;;;;;5051098;28;20029;-86
2024/03/27 05:38:20;;;;;;;15.48;5.38;;;5.00;74.50;;;;;;5056201;28;20021;-86
2024/03/27 05:40:46;;;;;;;13.50;5.75;;;5.10;74.30;;;;;;5044649;28;20382;-88
2024/03/27 05:43:12;;;;;;;8.38;4.38;;;5.20;73.80;;;;;;5071053;28;20048;-88
2024/03/27 05:45:38;;;;;;;13.75;5.47;;;5.20;73.00;;;;;;5065884;28;20023;-88
2024/03/27 05:48:14;;;;;;;11.55;4.82;;;5.20;72.80;;;;;;5041653;28;20394;-87
2024/03/27 05:50:40;;;;;;;9.75;4.40;;;5.30;72.50;;;;;;5026659;28;20163;-86
2024/03/27 05:53:07;;;;;;;8.40;4.57;;;5.30;72.20;;;;;;5047445;28;20048;-86
2024/03/27 05:55:33;;;;;;;9.00;4.82;;;5.40;71.70;;;;;;5069611;28;20021;-84
2024/03/27 05:57:59;;;;;;;11.52;4.35;;;5.40;71.40;;;;;;5069284;28;20033;-83
2024/03/27 06:00:25;;;;;;;10.43;4.90;;;5.40;71.40;;;;;;5046901;28;20453;-83
2024/03/27 06:02:51;;;;;;;8.43;4.32;;;5.40;71.30;;;;;;5053245;28;20047;-81
2024/03/27 06:05:17;;;;;;;13.18;4.88;;;5.50;70.90;;;;;;5067967;28;20041;-84
2024/03/27 06:07:43;;;;;;;11.90;4.50;;;5.50;70.70;;;;;;5070595;28;20032;-85
2024/03/27 06:10:09;;;;;;;7.10;3.72;;;5.50;70.30;;;;;;5064674;28;20163;-84
2024/03/27 06:12:35;;;;;;;10.23;4.00;;;5.50;70.10;;;;;;5044631;28;20020;-83
2024/03/27 06:15:00;;;;;;;7.45;4.03;;;5.50;70.20;;;;;;5066144;28;20059;-84
2024/03/27 06:17:26;;;;;;;8.23;3.90;;;5.60;70.50;;;;;;5061063;28;20124;-86
2024/03/27 06:19:52;;;;;;;10.73;4.03;;;5.60;70.20;;;;;;5067410;28;20103;-86
2024/03/27 06:22:18;;;;;;;6.90;3.58;;;5.70;70.10;;;;;;5040441;28;20506;-85
2024/03/27 06:24:43;;;;;;;5.88;3.33;;;5.70;70.20;;;;;;5065338;28;20046;-87
2024/03/27 06:27:09;;;;;;;7.40;3.42;;;5.80;70.10;;;;;;5063851;28;20418;-86
2024/03/27 06:29:35;;;;;;;8.13;3.38;;;5.80;70.00;;;;;;5062482;28;20035;-85
2024/03/27 06:32:10;;;;;;;18.10;4.03;;;5.90;69.80;;;;;;5039710;28;20052;-85
2024/03/27 06:34:36;;;;;;;11.55;3.88;;;5.90;69.60;;;;;;5038359;28;20074;-86
2024/03/27 06:37:02;;;;;;;11.05;2.88;;;6.00;69.80;;;;;;5057523;28;20021;-87
2024/03/27 06:39:53;;;;;;;14.43;3.75;;;6.10;69.20;;;;;;5039753;28;20086;-86
2024/03/27 06:42:19;;;;;;;8.55;4.22;;;6.10;69.00;;;;;;5057255;28;20033;-85
2024/03/27 06:44:47;;;;;;;11.40;3.15;;;6.10;68.70;;;;;;5043118;28;20462;-86
2024/03/27 06:47:13;;;;;;;8.18;2.92;;;6.20;68.30;;;;;;5060178;28;20021;-85
2024/03/27 06:49:39;;;;;;;5.97;3.35;;;6.20;68.50;;;;;;5059708;28;20077;-88
2024/03/27 06:52:05;;;;;;;7.13;3.35;;;6.20;68.30;;;;;;5040664;28;20025;-86
2024/03/27 06:54:31;;;;;;;7.47;3.17;;;6.30;68.30;;;;;;5056877;28;20025;-87
2024/03/27 06:56:56;;;;;;;8.90;2.72;;;6.40;68.20;;;;;;5056283;28;20127;-85
2024/03/27 06:59:22;;;;;;;10.32;3.90;;;6.50;68.00;;;;;;5058547;28;20092;-86
2024/03/27 07:01:48;;;;;;;9.52;3.00;;;6.50;68.10;;;;;;5068680;28;20417;-84
2024/03/27 07:04:14;;;;;;;6.13;3.53;;;6.60;67.90;;;;;;5055295;28;20032;-89
2024/03/27 07:06:39;;;;;;;6.95;3.00;;;6.70;67.90;;;;;;5055825;28;20028;-87
2024/03/27 07:09:05;;;;;;;7.93;3.35;;;6.80;67.50;;;;;;5055251;28;20060;-87
2024/03/27 07:11:31;;;;;;;10.52;4.50;;;6.90;67.50;;;;;;5038410;28;20032;-86
2024/03/27 07:13:57;;;;;;;7.18;3.40;;;7.00;67.50;;;;;;5055533;28;20069;-87
2024/03/27 07:16:22;;;;;;;11.02;3.35;;;7.50;67.70;;;;;;5056713;28;20069;-87
2024/03/27 07:18:48;;;;;;;7.93;3.45;;;8.90;65.20;;;;;;5063699;28;20065;-89
2024/03/27 07:21:14;;;;;;;11.77;3.95;;;10.70;62.80;;;;;;5045114;28;20045;-86
2024/03/27 07:23:40;;;;;;;7.78;3.40;;;12.50;57.60;;;;;;5057152;28;20068;-88
2024/03/27 07:26:07;;;;;;;12.23;3.17;;;13.80;54.60;;;;;;5056718;28;20427;-89
2024/03/27 07:28:32;;;;;;;9.63;3.80;;;15.00;51.10;;;;;;5022781;28;20108;-88
2024/03/27 07:30:59;;;;;;;5.55;2.92;;;15.40;49.90;;;;;;5056225;28;20051;-88
2024/03/27 07:33:25;;;;;;;5.25;2.42;;;16.20;47.80;;;;;;5059728;28;20024;-89
2024/03/27 07:35:51;;;;;;;6.43;2.30;;;17.00;45.90;;;;;;5052338;28;20111;-90
2024/03/27 07:38:17;;;;;;;7.28;2.55;;;17.40;44.20;;;;;;5061557;28;20021;-88
2024/03/27 07:40:43;;;;;;;6.75;2.55;;;18.00;43.20;;;;;;5056034;28;20028;-87
2024/03/27 07:43:09;;;;;;;6.63;3.55;;;18.10;42.40;;;;;;5054467;28;20112;-87
2024/03/27 07:45:35;;;;;;;13.98;3.30;;;18.00;42.60;;;;;;5054992;28;20069;-89
2024/03/27 07:48:00;;;;;;;7.63;2.95;;;19.00;42.20;;;;;;5036471;28;20041;-86
2024/03/27 07:50:26;;;;;;;10.65;2.75;;;19.00;39.90;;;;;;5055331;28;20039;-90
2024/03/27 07:52:52;;;;;;;12.40;2.90;;;19.20;40.10;;;;;;5038927;28;20456;-87
2024/03/27 07:55:18;;;;;;;6.85;3.22;;;19.70;39.30;;;;;;5057977;28;20405;-88
2024/03/27 07:57:43;;;;;;;5.75;1.90;;;20.20;38.50;;;;;;5057006;28;20536;-87
2024/03/27 08:00:11;;;;;;;7.03;2.58;;;19.60;37.00;;;;;;5054171;28;20036;-88
2024/03/27 08:02:40;;;;;;;9.13;2.70;;;18.60;37.80;;;;;;5054986;28;20143;-87
2024/03/27 08:05:06;;;;;;;10.50;2.90;;;18.40;39.50;;;;;;5054814;28;20025;-87
2024/03/27 08:07:35;;;;;;;6.00;2.95;;;19.00;39.30;;;;;;5055899;28;20028;-87
2024/03/27 08:10:03;;;;;;;4.85;2.55;;;19.90;37.80;;;;;;5057796;28;20051;-88
2024/03/27 08:12:30;;;;;;;6.50;1.85;;;20.60;37.50;;;;;;5039326;28;20503;-87
2024/03/27 08:14:56;;;;;;;4.60;2.28;;;21.30;36.00;;;;;;5047797;28;20056;-87
2024/03/27 08:17:22;;;;;;;5.18;2.22;;;21.50;35.50;;;;;;5064919;28;20024;-86
2024/03/27 08:19:47;;;;;;;9.98;2.97;;;20.40;35.50;;;;;;5060334;28;20020;-85
2024/03/27 08:22:13;;;;;;;12.75;3.75;;;19.20;37.50;;;;;;5057516;28;20086;-88
2024/03/27 08:24:39;;;;;;;7.05;3.08;;;18.70;37.80;;;;;;5058090;28;20029;-87
2024/03/27 08:27:05;;;;;;;15.82;4.70;;;19.10;38.30;;;;;;5056848;28;20108;-87
2024/03/27 08:29:32;;;;;;;13.93;3.38;;;20.00;36.70;;;;;;5060064;28;20020;-88
2024/03/27 08:31:59;;;;;;;6.47;2.53;;;19.80;36.30;;;;;;5062977;28;20049;-89
2024/03/27 08:34:25;;;;;;;16.73;2.90;;;18.60;37.10;;;;;;5061103;28;20271;-87
2024/03/27 08:36:51;;;;;;;7.90;2.03;;;18.00;38.00;;;;;;5059985;28;20023;-88
2024/03/27 08:39:17;;;;;;;5.93;1.90;;;17.40;38.00;;;;;;5060224;28;20071;-86
2024/03/27 08:41:47;;;;;;;7.78;3.47;;;17.50;38.70;;;;;;5054671;28;20434;-87
2024/03/27 08:44:15;;;;;;;4.78;2.03;;;18.70;37.90;;;;;;5055065;28;20033;-89
2024/03/27 08:46:41;;;;;;;6.25;2.78;;;18.80;36.90;;;;;;5054234;28;20102;-88
2024/03/27 08:49:07;;;;;;;12.90;2.85;;;18.40;37.90;;;;;;5042070;28;20437;-85
2024/03/27 08:51:32;;;;;;;8.20;3.03;;;18.20;38.00;;;;;;5053745;28;20025;-87
2024/03/27 08:53:58;;;;;;;4.32;2.47;;;18.80;37.50;;;;;;5053627;28;20342;-88
2024/03/27 08:56:24;;;;;;;6.63;3.55;;;19.20;36.30;;;;;;5054396;28;20017;-87
2024/03/27 08:58:50;;;;;;;8.95;3.55;;;18.40;36.70;;;;;;5054121;28;20021;-87
2024/03/27 09:01:16;;;;;;;8.02;2.50;;;18.20;37.90;;;;;;5056069;28;20037;-88
2024/03/27 09:03:42;;;;;;;5.75;2.67;;;18.30;37.90;;;;;;5054678;28;20029;-86
2024/03/27 09:06:09;;;;;;;6.95;3.10;;;18.90;37.30;;;;;;5053719;28;20025;-87
2024/03/27 09:08:35;;;;;;;6.93;2.80;;;19.30;36.90;;;;;;5054246;28;20143;-87
2024/03/27 09:11:02;;;;;;;6.83;2.60;;;19.40;36.30;;;;;;5054763;28;20254;-86
2024/03/27 09:13:28;;;;;;;10.20;2.93;;;19.90;36.30;;;;;;5054008;28;20246;-87
2024/03/27 09:15:58;;;;;;;8.43;2.30;;;20.90;35.80;;;;;;5053631;28;20151;-89
2024/03/27 09:18:25;;;;;;;6.20;2.58;;;21.20;35.30;;;;;;5036472;28;20036;-89
2024/03/27 09:20:55;;;;;;;9.70;3.40;;;21.30;35.60;;;;;;5055121;28;20168;-88
2024/03/27 09:23:21;;;;;;;8.13;2.80;;;21.60;34.90;;;;;;5053415;28;20413;-87
2024/03/27 09:25:57;;;;;;;10.75;2.90;;;22.30;34.20;;;;;;5057430;28;20044;-87
2024/03/27 09:28:24;;;;;;;6.00;2.63;;;22.50;33.80;;;;;;5054740;28;20044;-86
2024/03/27 09:30:49;;;;;;;9.03;3.80;;;21.80;33.50;;;;;;5061072;28;20035;-87
2024/03/27 09:33:16;;;;;;;12.68;3.58;;;20.80;34.70;;;;;;5066381;28;20278;-86
2024/03/27 09:35:43;;;;;;;8.15;3.05;;;21.00;34.90;;;;;;5057883;28;20039;-86
2024/03/27 09:38:10;;;;;;;8.60;3.33;;;20.90;34.70;;;;;;5062663;28;20025;-87
2024/03/27 09:40:48;;;;;;;5.13;2.47;;;19.20;35.20;;;;;;5054487;28;20025;-85
2024/03/27 09:43:15;;;;;;;7.22;3.45;;;17.20;38.00;;;;;;5052601;28;20029;-85
2024/03/27 09:45:46;;;;;;;9.73;3.33;;;16.30;39.60;;;;;;5054795;28;20052;-85
2024/03/27 09:48:13;;;;;;;12.50;3.97;;;15.30;40.60;;;;;;5053323;28;20025;-87
2024/03/27 09:50:39;;;;;;;7.88;2.83;;;14.80;42.10;;;;;;5052641;28;20029;-86
2024/03/27 09:53:08;;;;;;;9.73;3.38;;;15.70;42.20;;;;;;5036435;28;20078;-87
2024/03/27 09:55:35;;;;;;;4.63;2.97;;;16.50;40.20;;;;;;5057604;28;20109;-87
2024/03/27 09:58:14;;;;;;;3.42;2.40;;;17.60;39.30;;;;;;5057315;28;20025;-88
2024/03/27 10:00:41;;;;;;;4.30;2.40;;;18.70;37.50;;;;;;5059195;28;20040;-87
2024/03/27 10:03:07;;;;;;;10.07;2.73;;;20.00;36.40;;;;;;5057060;28;20367;-88
2024/03/27 10:05:33;;;;;;;6.57;2.85;;;20.00;35.60;;;;;;5038032;28;20034;-88
2024/03/27 10:08:00;;;;;;;8.82;3.33;;;19.70;36.00;;;;;;5057556;28;20047;-87
2024/03/27 10:10:26;;;;;;;9.00;3.53;;;19.10;36.50;;;;;;5059611;28;20021;-86
2024/03/27 10:12:52;;;;;;;7.85;2.65;;;18.60;37.40;;;;;;5061803;28;20045;-86
2024/03/27 10:15:18;;;;;;;6.13;3.07;;;19.60;37.20;;;;;;5059322;28;20027;-86
2024/03/27 10:17:45;;;;;;;7.70;3.22;;;20.40;36.00;;;;;;5058195;28;20076;-90
2024/03/27 10:20:11;;;;;;;8.07;2.88;;;21.30;34.90;;;;;;5064925;28;20414;-85
2024/03/27 10:22:38;;;;;;;7.30;2.83;;;21.20;34.20;;;;;;5060196;28;20029;-85
2024/03/27 10:25:06;;;;;;;4.63;2.47;;;20.90;34.10;;;;;;5058521;28;20028;-86
2024/03/27 10:27:32;;;;;;;;;;;18.80;35.20;;;;;;5056903;28;20029;-86
2024/03/27 10:29:58;;;;;;;8.00;3.15;;;17.10;37.10;;;;;;5056655;28;19908;-85
2024/03/27 10:32:25;;;;;;;6.70;2.23;;;15.80;38.90;;;;;;5038038;28;20021;-85
2024/03/27 10:34:51;;;;;;;6.43;3.33;;;14.80;40.30;;;;;;5055719;28;20546;-87
2024/03/27 10:37:18;;;;;;;12.90;3.80;;;14.10;41.60;;;;;;5037391;28;20195;-86
2024/03/27 10:39:49;;;;;;;12.87;3.47;;;13.60;42.60;;;;;;5038028;28;20078;-86
2024/03/27 10:42:26;;;;;;;6.53;3.22;;;13.10;43.30;;;;;;5038515;28;20717;-86
2024/03/27 10:44:59;;;;;;;7.28;3.38;;;12.50;44.00;;;;;;5057405;28;20548;-86
2024/03/27 10:47:32;;;;;;;7.00;2.60;;;11.70;45.10;;;;;;5067199;28;20478;-85
2024/03/27 10:50:00;;;;;;;10.63;2.60;;;11.10;46.30;;;;;;5058898;28;20028;-85
2024/03/27 10:52:27;;;;;;;7.07;2.75;;;10.70;47.00;;;;;;5056871;28;20343;-86
2024/03/27 10:54:54;;;;;;;7.85;2.33;;;10.50;47.50;;;;;;5055606;28;20561;-86
2024/03/27 10:57:21;;;;;;;6.90;3.42;;;10.40;48.30;;;;;;5054680;28;20044;-85
2024/03/27 10:59:49;;;;;;;7.25;3.72;;;10.30;48.90;;;;;;5054913;28;20040;-86
2024/03/27 11:02:18;;;;;;;8.98;3.47;;;10.50;49.00;;;;;;5037198;28;20022;-85
2024/03/27 11:04:53;;;;;;;6.50;2.80;;;10.70;49.30;;;;;;5024153;28;20045;-85
2024/03/27 11:07:20;;;;;;;6.93;2.83;;;10.80;49.00;;;;;;5040985;28;20043;-86
2024/03/27 11:09:53;;;;;;;6.68;3.00;;;10.80;47.70;;;;;;5058480;28;20040;-85
2024/03/27 11:12:23;;;;;;;6.05;2.10;;;10.50;48.00;;;;;;5059007;28;20058;-83
2024/03/27 11:14:49;;;;;;;8.68;2.60;;;10.40;47.90;;;;;;5057091;28;20099;-85
2024/03/27 11:17:16;;;;;;;7.25;2.92;;;10.20;48.60;;;;;;5057399;28;20025;-85
2024/03/27 11:19:44;;;;;;;9.93;2.78;;;10.10;48.70;;;;;;5055271;28;20017;-85
2024/03/27 11:22:14;;;;;;;6.60;2.85;;;10.00;49.00;;;;;;5055857;28;20039;-84
2024/03/27 11:24:41;;;;;;;5.07;2.95;;;9.90;49.20;;;;;;5043576;28;20036;-86
2024/03/27 11:27:31;;;;;;;7.20;2.95;;;10.00;49.20;;;;;;5057469;28;20021;-86
2024/03/27 11:30:00;;;;;;;3.97;2.10;;;9.90;49.70;;;;;;5056045;28;20025;-84
2024/03/27 11:32:38;;;;;;;4.25;2.78;;;9.80;49.90;;;;;;5058933;28;20020;-86
2024/03/27 11:35:05;;;;;;;10.20;2.17;;;9.70;49.60;;;;;;5038526;28;20021;-85
2024/03/27 11:37:31;;;;;;;5.10;1.98;;;9.60;49.20;;;;;;5056520;28;20029;-85
2024/03/27 11:39:57;;;;;;;4.68;2.47;;;9.50;49.30;;;;;;5054938;28;20024;-84
2024/03/27 11:42:24;;;;;;;5.57;2.10;;;9.50;49.20;;;;;;5054603;28;20133;-88
2024/03/27 11:44:50;;;;;;;7.35;2.85;;;9.50;49.30;;;;;;5054522;28;20029;-84
2024/03/27 11:47:17;;;;;;;8.50;2.35;;;9.50;49.20;;;;;;5054999;28;20367;-84
2024/03/27 11:49:45;;;;;;;4.95;2.30;;;9.50;49.50;;;;;;5054639;28;20522;-86
2024/03/27 11:52:12;;;;;;;3.92;1.83;;;9.50;49.40;;;;;;5054864;28;20029;-85
2024/03/27 11:54:39;;;;;;;9.23;3.03;;;9.50;49.50;;;;;;5054131;28;20047;-86
2024/03/27 11:57:05;;;;;;;7.95;2.78;;;9.50;49.20;;;;;;5054716;28;20394;-85
2024/03/27 11:59:30;;;;;;;6.10;2.72;;;9.40;49.40;;;;;;5056152;28;20083;-86
2024/03/27 12:02:00;;;;;;;5.53;2.08;;;9.40;49.50;;;;;;5055229;28;20021;-84
2024/03/27 12:04:25;;;;;;;5.55;2.08;;;9.40;49.40;;;;;;5040867;28;20399;-85
2024/03/27 12:06:51;;;;;;;5.07;2.33;;;9.40;49.60;;;;;;5053201;28;20096;-87
2024/03/27 12:09:17;;;;;;;3.90;2.13;;;9.30;49.60;;;;;;5053607;28;20025;-85
2024/03/27 12:11:43;;;;;;;6.88;2.95;;;9.40;49.60;;;;;;5038545;28;20021;-85
2024/03/27 12:14:15;;;;;;;8.02;2.42;;;9.30;49.60;;;;;;5039857;28;20029;-83
2024/03/27 12:16:41;;;;;;;6.05;2.20;;;9.40;49.70;;;;;;5053524;28;20096;-85
2024/03/27 12:19:07;;;;;;;6.10;2.88;;;9.50;49.20;;;;;;5054210;28;20025;-86
2024/03/27 12:21:33;;;;;;;6.47;3.03;;;9.60;49.20;;;;;;5061424;28;20517;-87
2024/03/27 12:23:59;;;;;;;5.20;2.60;;;9.50;49.10;;;;;;5055072;28;20030;-85
2024/03/27 12:26:25;;;;;;;5.03;1.88;;;9.50;49.30;;;;;;5053518;28;20028;-85
2024/03/27 12:28:52;;;;;;;4.45;1.98;;;9.60;49.30;;;;;;5034640;28;20482;-85
2024/03/27 12:31:28;;;;;;;5.93;2.45;;;9.70;49.30;;;;;;5053249;28;20029;-85
2024/03/27 12:33:55;;;;;;;2.53;1.80;;;10.00;48.60;;;;;;5052441;28;20025;-85
2024/03/27 12:36:22;;;;;;;6.57;2.23;;;10.10;48.10;;;;;;5036740;28;20017;-84
2024/03/27 12:38:48;;;;;;;6.07;2.63;;;10.10;48.00;;;;;;5052943;28;20353;-85
2024/03/27 12:41:14;;;;;;;9.73;2.67;;;10.10;47.80;;;;;;5036279;28;20319;-84
2024/03/27 12:43:40;;;;;;;5.10;1.83;;;10.10;48.10;;;;;;5053014;28;20063;-85
2024/03/27 12:46:08;;;;;;;9.18;3.30;;;10.20;48.00;;;;;;5053699;28;20021;-84
2024/03/27 12:48:35;;;;;;;8.15;2.13;;;10.30;47.80;;;;;;5053028;28;20075;-84